createdAt,value
2023-05-19T00:00:24.120Z,101522.92
2023-05-19T00:01:24.545Z,101526.86
2023-05-19T00:02:24.955Z,101525.11
2023-05-19T00:03:25.386Z,101524.97
2023-05-19T00:04:27.544Z,101530.7
2023-05-19T00:05:25.823Z,101528.25
2023-05-19T00:06:27.249Z,101528.56
2023-05-19T00:07:31.341Z,101532.54
2023-05-19T00:08:31.852Z,101531.46
2023-05-19T00:09:29.936Z,101534.05
2023-05-19T00:10:30.582Z,101533.48
2023-05-19T00:11:30.644Z,101533.14
2023-05-19T00:12:30.970Z,101531.8
2023-05-19T00:13:31.171Z,101533.88
2023-05-19T00:14:31.796Z,101534.29
2023-05-19T00:15:31.909Z,101535.34
2023-05-19T00:16:32.139Z,101536.23
2023-05-19T00:17:32.063Z,101537.25
2023-05-19T00:18:32.442Z,101543.09
2023-05-19T00:19:32.968Z,101543.47
2023-05-19T00:20:33.482Z,101541.39
2023-05-19T00:21:36.641Z,101547.67
2023-05-19T00:22:34.104Z,101548.63
2023-05-19T00:23:34.203Z,101547.91
2023-05-19T00:24:35.234Z,101545.81
2023-05-19T00:25:36.796Z,101550.52
2023-05-19T00:26:35.455Z,101552.86
2023-05-19T00:27:35.786Z,101550.42
2023-05-19T00:28:36.285Z,101549.52
2023-05-19T00:29:36.501Z,101548.02
2023-05-19T00:30:37.563Z,101549.62
2023-05-19T00:31:37.249Z,101552.84
2023-05-19T00:32:37.554Z,101560.28
2023-05-19T00:33:37.873Z,101556.82
2023-05-19T00:34:38.381Z,101561.36
2023-05-19T00:35:41.438Z,101558.94
2023-05-19T00:36:39.339Z,101565.17
2023-05-19T00:37:39.335Z,101563
2023-05-19T00:38:40.138Z,101564.21
2023-05-19T00:39:40.152Z,101564.24
2023-05-19T00:40:40.488Z,101565.05
2023-05-19T00:41:40.904Z,101563.32
2023-05-19T00:42:41.713Z,101563.02
2023-05-19T00:43:41.728Z,101565.66
2023-05-19T00:44:45.807Z,101563.1
2023-05-19T00:45:43.373Z,101565.59
2023-05-19T00:46:43.653Z,101564.88
2023-05-19T00:47:43.819Z,101567.66
2023-05-19T00:48:44.120Z,101568.25
2023-05-19T00:49:44.528Z,101565.98
2023-05-19T00:50:49.053Z,101568.67
2023-05-19T00:51:46.521Z,101571.36
2023-05-19T00:52:47.110Z,101572.48
2023-05-19T00:53:48.386Z,101577.31
2023-05-19T00:54:48.668Z,101579.62
2023-05-19T00:55:48.771Z,101581.55
2023-05-19T00:56:50.708Z,101579.31
2023-05-19T00:57:49.801Z,101583.55
2023-05-19T00:58:51.766Z,101584.75
2023-05-19T00:59:49.508Z,101583.44
2023-05-19T01:00:50.520Z,101583.95
2023-05-19T01:01:50.128Z,101584.34
2023-05-19T01:02:50.802Z,101582.7
2023-05-19T01:03:50.753Z,101584.2
2023-05-19T01:04:52.215Z,101584.75
2023-05-19T01:05:51.484Z,101585.48
2023-05-19T01:06:52.220Z,101585
2023-05-19T01:07:52.734Z,101584.66
2023-05-19T01:08:52.318Z,101585.02
2023-05-19T01:09:52.938Z,101591.03
2023-05-19T01:10:53.260Z,101587.81
2023-05-19T01:11:53.805Z,101589.69
2023-05-19T01:12:53.707Z,101591.96
2023-05-19T01:13:54.214Z,101589.81
2023-05-19T01:14:56.054Z,101590.06
2023-05-19T01:31:26.811Z,101600.55
2023-05-19T01:32:26.483Z,101597.58
2023-05-19T01:33:28.545Z,101603.52
2023-05-19T01:34:27.411Z,101601.8
2023-05-19T01:36:29.170Z,101594.84
2023-05-19T01:37:29.399Z,101598.16
2023-05-19T01:38:30.109Z,101596.98
2023-05-19T01:39:29.816Z,101597.04
2023-05-19T01:40:31.203Z,101601.92
2023-05-19T01:41:31.042Z,101598.8
2023-05-19T01:42:32.070Z,101601.55
2023-05-19T01:43:31.262Z,101602.55
2023-05-19T01:44:34.128Z,101600.41
2023-05-19T01:45:33.695Z,101599.98
2023-05-19T01:46:32.018Z,101602.48
2023-05-19T01:47:35.119Z,101604.88
2023-05-19T01:48:33.568Z,101603.38
2023-05-19T01:49:32.938Z,101601.78
2023-05-19T01:50:34.616Z,101604.98
2023-05-19T01:51:33.980Z,101603.67
2023-05-19T01:52:34.232Z,101599.89
2023-05-19T01:53:34.732Z,101604.73
2023-05-19T01:54:34.745Z,101599.17
2023-05-19T02:02:02.416Z,101602.39
2023-05-19T02:12:29.171Z,101613.89
2023-05-19T02:13:30.028Z,101617.02
2023-05-19T02:15:34.361Z,101612.88
2023-05-19T02:16:29.190Z,101614.73
2023-05-19T02:17:31.943Z,101616.27
2023-05-19T02:18:30.174Z,101616.63
2023-05-19T02:19:38.987Z,101617.92
2023-05-19T02:20:32.191Z,101616.9
2023-05-19T02:21:31.625Z,101616.61
2023-05-19T02:22:32.256Z,101619.98
2023-05-19T02:23:32.571Z,101618.91
2023-05-19T02:24:32.561Z,101621.34
2023-05-19T02:25:32.885Z,101624.86
2023-05-19T02:26:33.322Z,101622
2023-05-19T02:27:35.108Z,101620.58
2023-05-19T02:28:34.119Z,101621.39
2023-05-19T02:29:34.343Z,101619.5
2023-05-19T02:30:34.886Z,101624.09
2023-05-19T02:31:35.086Z,101628.41
2023-05-19T02:32:35.719Z,101624.09
2023-05-19T02:33:35.912Z,101623.41
2023-05-19T02:34:36.014Z,101624.48
2023-05-19T02:35:36.424Z,101625.03
2023-05-19T02:36:36.946Z,101622.7
2023-05-19T02:37:37.248Z,101626.36
2023-05-19T02:38:37.463Z,101628.2
2023-05-19T02:39:37.778Z,101627.83
2023-05-19T02:40:38.005Z,101632.38
2023-05-19T02:41:39.028Z,101631.94
2023-05-19T02:42:40.471Z,101629.38
2023-05-19T02:43:39.144Z,101631.02
2023-05-19T02:44:39.885Z,101629.36
2023-05-19T02:45:39.771Z,101628.8
2023-05-19T02:46:40.358Z,101633.64
2023-05-19T02:47:40.590Z,101630.8
2023-05-19T02:48:40.919Z,101633.86
2023-05-19T02:49:41.334Z,101637.02
2023-05-19T02:50:41.552Z,101639.29
2023-05-19T02:51:41.755Z,101637.79
2023-05-19T02:52:42.343Z,101639.14
2023-05-19T02:53:42.597Z,101641.59
2023-05-19T02:54:42.998Z,101642.02
2023-05-19T02:55:43.335Z,101639.59
2023-05-19T02:56:43.745Z,101640.16
2023-05-19T02:57:44.244Z,101637.23
2023-05-19T02:58:44.257Z,101638.09
2023-05-19T02:59:44.569Z,101639.21
2023-05-19T03:00:44.992Z,101641.86
2023-05-19T03:01:45.337Z,101645.26
2023-05-19T03:02:45.987Z,101643.69
2023-05-19T03:03:46.119Z,101643.64
2023-05-19T03:04:46.244Z,101644.8
2023-05-19T03:05:46.765Z,101641.42
2023-05-19T03:06:47.401Z,101641.47
2023-05-19T03:07:47.828Z,101642.75
2023-05-19T03:08:49.063Z,101638.14
2023-05-19T03:09:48.027Z,101642.2
2023-05-19T03:10:48.955Z,101644.16
2023-05-19T03:11:48.850Z,101645.61
2023-05-19T03:12:49.284Z,101645.31
2023-05-19T03:13:49.374Z,101647.05
2023-05-19T03:14:50.323Z,101645.12
2023-05-19T03:15:50.311Z,101646.36
2023-05-19T03:16:50.783Z,101642.69
2023-05-19T03:17:51.443Z,101643.73
2023-05-19T03:18:51.501Z,101647.52
2023-05-19T03:19:51.570Z,101646.95
2023-05-19T03:20:52.293Z,101648.47
2023-05-19T03:21:52.306Z,101649.88
2023-05-19T03:22:52.718Z,101649.14
2023-05-19T03:23:53.344Z,101651.25
2023-05-19T03:24:53.664Z,101653.17
2023-05-19T03:25:53.551Z,101657.11
2023-05-19T03:26:54.068Z,101654.72
2023-05-19T03:27:54.624Z,101652.77
2023-05-19T03:28:54.699Z,101655.19
2023-05-19T03:29:55.016Z,101654.27
2023-05-19T03:30:55.443Z,101655.92
2023-05-19T03:31:55.861Z,101659.8
2023-05-19T03:32:56.340Z,101659.91
2023-05-19T03:33:59.250Z,101656.82
2023-05-19T03:34:56.904Z,101658.7
2023-05-19T03:35:57.832Z,101660.5
2023-05-19T03:36:57.662Z,101663.19
2023-05-19T03:38:59.800Z,101661.74
2023-05-19T03:40:00.521Z,101666.88
2023-05-19T03:41:00.762Z,101666.42
2023-05-19T03:42:00.932Z,101666.91
2023-05-19T03:43:01.344Z,101667.73
2023-05-19T03:44:02.904Z,101665.73
2023-05-19T03:45:05.257Z,101666.58
2023-05-19T03:46:02.773Z,101669.35
2023-05-19T03:47:03.327Z,101667.78
2023-05-19T03:48:03.711Z,101665.95
2023-05-19T03:49:05.385Z,101666.81
2023-05-19T03:50:04.675Z,101667.28
2023-05-19T03:51:04.851Z,101670.51
2023-05-19T03:52:05.399Z,101672.77
2023-05-19T03:53:05.415Z,101674.67
2023-05-19T03:54:06.038Z,101675.2
2023-05-19T03:55:06.656Z,101676.47
2023-05-19T03:56:07.078Z,101673.14
2023-05-19T03:57:06.579Z,101676.54
2023-05-19T03:58:07.195Z,101677.76
2023-05-19T03:59:07.810Z,101682.86
2023-05-19T04:00:09.445Z,101680.02
2023-05-19T04:01:08.133Z,101682
2023-05-19T04:02:08.658Z,101678.93
2023-05-19T04:03:09.280Z,101675.13
2023-05-19T04:04:09.348Z,101680.05
2023-05-19T04:05:11.135Z,101675.03
2023-05-19T04:06:10.008Z,101677.12
2023-05-19T04:07:10.329Z,101677
2023-05-19T04:08:10.831Z,101679.06
2023-05-19T04:09:14.643Z,101678.46
2023-05-19T04:10:15.142Z,101678.09
2023-05-19T04:11:12.910Z,101677.2
2023-05-19T04:12:13.230Z,101676.95
2023-05-19T04:13:13.445Z,101680.75
2023-05-19T04:14:13.527Z,101682.96
2023-05-19T04:15:14.286Z,101685.06
2023-05-19T04:16:15.195Z,101681.83
2023-05-19T04:17:15.104Z,101686.63
2023-05-19T04:18:15.442Z,101682.89
2023-05-19T04:19:15.580Z,101682.75
2023-05-19T04:20:15.932Z,101684.06
2023-05-19T04:21:16.359Z,101686.19
2023-05-19T04:22:16.775Z,101685.99
2023-05-19T04:23:17.069Z,101685.35
2023-05-19T04:24:17.411Z,101683.78
2023-05-19T04:25:17.815Z,101682.78
2023-05-19T04:26:18.336Z,101685.53
2023-05-19T04:27:18.554Z,101687.12
2023-05-19T04:28:19.057Z,101686.59
2023-05-19T04:29:19.492Z,101687.59
2023-05-19T04:30:19.793Z,101686.02
2023-05-19T04:31:20.551Z,101690.27
2023-05-19T04:32:20.739Z,101690.95
2023-05-19T04:33:21.150Z,101690.64
2023-05-19T04:34:21.181Z,101694.42
2023-05-19T04:35:21.582Z,101694.38
2023-05-19T04:36:22.009Z,101691.58
2023-05-19T04:37:22.494Z,101696.47
2023-05-19T04:38:22.638Z,101699.2
2023-05-19T04:39:23.336Z,101696.84
2023-05-19T04:40:23.434Z,101699.02
2023-05-19T04:41:23.887Z,101692.92
2023-05-19T04:42:24.297Z,101696.11
2023-05-19T04:43:24.586Z,101693.7
2023-05-19T04:44:25.000Z,101694.36
2023-05-19T04:45:25.525Z,101691.66
2023-05-19T04:46:27.114Z,101694.65
2023-05-19T04:47:26.178Z,101694.92
2023-05-19T04:48:26.569Z,101696.87
2023-05-19T04:49:27.193Z,101696.87
2023-05-19T04:50:27.299Z,101693.55
2023-05-19T04:51:30.480Z,101693
2023-05-19T04:52:28.233Z,101691.12
2023-05-19T04:53:29.374Z,101694.57
2023-05-19T04:54:28.976Z,101691.86
2023-05-19T04:55:30.525Z,101694.98
2023-05-19T04:56:29.710Z,101691.47
2023-05-19T04:57:30.119Z,101695.72
2023-05-19T04:58:30.522Z,101693.03
2023-05-19T04:59:30.960Z,101697.48
2023-05-19T05:00:31.659Z,101698.19
2023-05-19T05:01:31.908Z,101700.27
2023-05-19T05:02:34.866Z,101700.75
2023-05-19T05:03:33.827Z,101701.33
2023-05-19T05:04:32.738Z,101699.39
2023-05-19T05:05:33.347Z,101703.28
2023-05-19T05:06:33.774Z,101701.16
2023-05-19T05:07:34.164Z,101704.93
2023-05-19T05:08:34.586Z,101704.63
2023-05-19T05:09:34.902Z,101700.33
2023-05-19T05:10:35.377Z,101705.97
2023-05-19T05:11:36.239Z,101705.25
2023-05-19T05:12:36.560Z,101706.58
2023-05-19T05:13:37.091Z,101707.84
2023-05-19T05:14:37.183Z,101707.19
2023-05-19T05:15:37.699Z,101705.84
2023-05-19T05:16:39.093Z,101709.91
2023-05-19T05:17:38.660Z,101710.67
2023-05-19T05:18:38.955Z,101710.09
2023-05-19T05:19:39.479Z,101713.16
2023-05-19T05:20:40.302Z,101709.67
2023-05-19T05:21:40.103Z,101711.22
2023-05-19T05:22:40.516Z,101714.5
2023-05-19T05:23:40.945Z,101715.48
2023-05-19T05:24:41.249Z,101710.61
2023-05-19T05:25:45.652Z,101711.11
2023-05-19T05:26:43.730Z,101707.91
2023-05-19T05:27:43.489Z,101710.69
2023-05-19T05:28:43.824Z,101704.61
2023-05-19T05:29:44.247Z,101705.22
2023-05-19T05:30:44.675Z,101712.7
2023-05-19T05:31:45.306Z,101707.62
2023-05-19T05:32:46.137Z,101709.2
2023-05-19T05:33:46.151Z,101707.12
2023-05-19T05:34:46.525Z,101709.2
2023-05-19T05:35:49.939Z,101709.95
2023-05-19T05:36:47.536Z,101708.11
2023-05-19T05:37:48.509Z,101709.61
2023-05-19T05:38:48.299Z,101710.27
2023-05-19T05:39:48.617Z,101708.28
2023-05-19T05:40:49.027Z,101704.95
2023-05-19T05:41:49.670Z,101706.92
2023-05-19T05:42:49.971Z,101710.11
2023-05-19T05:43:50.383Z,101706.84
2023-05-19T05:44:55.121Z,101706.02
2023-05-19T05:45:52.571Z,101708.8
2023-05-19T05:46:53.676Z,101707.83
2023-05-19T05:47:54.130Z,101706.06
2023-05-19T05:48:54.640Z,101710.62
2023-05-19T05:49:54.834Z,101708.58
2023-05-19T05:50:57.396Z,101711.16
2023-05-19T05:52:05.901Z,101708.52
2023-05-19T05:53:02.725Z,101708.56
2023-05-19T05:54:01.532Z,101708.39
2023-05-19T05:55:01.011Z,101709.36
2023-05-19T05:56:01.540Z,101709.52
2023-05-19T05:57:02.139Z,101714.01
2023-05-19T05:58:01.941Z,101712.75
2023-05-19T05:59:02.365Z,101715
2023-05-19T06:00:03.101Z,101717.09
2023-05-19T06:01:04.128Z,101714.27
2023-05-19T06:02:04.457Z,101713.13
2023-05-19T06:03:04.116Z,101716.56
2023-05-19T06:04:04.752Z,101710.53
2023-05-19T06:05:05.339Z,101716.82
2023-05-19T06:06:05.907Z,101718.55
2023-05-19T06:07:05.692Z,101715.71
2023-05-19T06:08:08.311Z,101719.92
2023-05-19T06:09:06.312Z,101721.72
2023-05-19T06:10:08.280Z,101718.08
2023-05-19T06:11:07.477Z,101717.03
2023-05-19T06:12:08.220Z,101715.52
2023-05-19T06:13:08.811Z,101715.97
2023-05-19T06:14:09.229Z,101712.05
2023-05-19T06:15:10.572Z,101713.91
2023-05-19T06:16:10.100Z,101708.38
2023-05-19T06:17:10.890Z,101713.18
2023-05-19T06:18:10.722Z,101714.23
2023-05-19T06:19:11.186Z,101715.61
2023-05-19T06:20:13.163Z,101719.11
2023-05-19T06:21:12.037Z,101716.91
2023-05-19T06:22:12.658Z,101717.11
2023-05-19T06:23:13.172Z,101713.8
2023-05-19T06:24:13.288Z,101714.66
2023-05-19T06:25:13.610Z,101714.14
2023-05-19T06:26:14.328Z,101719.12
2023-05-19T06:27:14.765Z,101716.62
2023-05-19T06:28:15.164Z,101718.53
2023-05-19T06:29:15.769Z,101717.28
2023-05-19T06:30:16.108Z,101717.98
2023-05-19T06:31:16.327Z,101718.98
2023-05-19T06:32:16.919Z,101713.88
2023-05-19T06:33:17.122Z,101719.46
2023-05-19T06:34:20.522Z,101717.62
2023-05-19T06:35:18.473Z,101717.12
2023-05-19T06:36:18.493Z,101721.67
2023-05-19T06:37:19.004Z,101720.84
2023-05-19T06:38:19.429Z,101715.42
2023-05-19T06:39:19.847Z,101719.62
2023-05-19T06:40:20.477Z,101714.39
2023-05-19T06:41:20.683Z,101716.28
2023-05-19T06:42:22.517Z,101717.86
2023-05-19T06:43:21.290Z,101717.2
2023-05-19T06:44:23.757Z,101719.42
2023-05-19T06:45:22.376Z,101717.47
2023-05-19T06:46:23.025Z,101717.78
2023-05-19T06:47:23.222Z,101719.45
2023-05-19T06:48:23.479Z,101720.3
2023-05-19T06:49:27.069Z,101721.5
2023-05-19T06:50:25.240Z,101719.58
2023-05-19T06:51:25.054Z,101720.27
2023-05-19T06:52:25.669Z,101718.41
2023-05-19T06:53:26.078Z,101718.32
2023-05-19T06:54:26.191Z,101716.28
2023-05-19T06:55:26.902Z,101720.52
2023-05-19T06:56:27.751Z,101716.42
2023-05-19T06:57:28.256Z,101716.46
2023-05-19T06:58:28.667Z,101715.64
2023-05-19T06:59:28.978Z,101716.78
2023-05-19T07:00:29.317Z,101718.28
2023-05-19T07:01:29.956Z,101721.16
2023-05-19T07:02:31.033Z,101722.09
2023-05-19T07:03:30.830Z,101722.66
2023-05-19T07:04:31.167Z,101719.91
2023-05-19T07:05:31.889Z,101722.38
2023-05-19T07:06:32.209Z,101719.95
2023-05-19T07:07:32.625Z,101719.36
2023-05-19T07:08:33.748Z,101716.84
2023-05-19T07:09:33.252Z,101719.11
2023-05-19T07:10:37.249Z,101718.94
2023-05-19T07:11:35.020Z,101718.34
2023-05-19T07:12:35.207Z,101719.94
2023-05-19T07:13:35.759Z,101718.06
2023-05-19T07:14:36.055Z,101715.73
2023-05-19T07:15:36.474Z,101718.69
2023-05-19T07:16:37.005Z,101713.84
2023-05-19T07:17:37.988Z,101714.19
2023-05-19T07:18:37.837Z,101718.59
2023-05-19T07:19:38.125Z,101714.12
2023-05-19T07:20:41.715Z,101715.12
2023-05-19T07:21:39.162Z,101720.03
2023-05-19T07:22:39.895Z,101719.52
2023-05-19T07:23:40.078Z,101720.88
2023-05-19T07:24:40.612Z,101716.91
2023-05-19T07:25:41.540Z,101718.11
2023-05-19T07:26:41.964Z,101723.02
2023-05-19T07:27:42.063Z,101720.39
2023-05-19T07:28:42.383Z,101723.73
2023-05-19T07:29:42.607Z,101717.98
2023-05-19T07:30:43.627Z,101722.03
2023-05-19T07:31:43.671Z,101717.78
2023-05-19T07:32:44.078Z,101717.21
2023-05-19T07:33:44.792Z,101717.34
2023-05-19T07:34:44.774Z,101718.52
2023-05-19T07:35:45.516Z,101721.97
2023-05-19T07:36:45.723Z,101718.58
2023-05-19T07:37:46.448Z,101717.59
2023-05-19T07:38:47.106Z,101721.39
2023-05-19T07:39:46.964Z,101717.95
2023-05-19T07:40:47.379Z,101717.38
2023-05-19T07:41:47.998Z,101719.95
2023-05-19T07:42:50.250Z,101723.17
2023-05-19T07:43:49.947Z,101723.38
2023-05-19T07:44:49.150Z,101720.52
2023-05-19T07:45:52.183Z,101718.66
2023-05-19T07:46:53.071Z,101724.75
2023-05-19T07:47:50.943Z,101717.36
2023-05-19T07:48:56.135Z,101719.55
2023-05-19T07:50:06.605Z,101716.49
2023-05-19T07:51:04.461Z,101718.44
2023-05-19T07:52:15.618Z,101724.65
2023-05-19T07:53:10.530Z,101716.88
2023-05-19T07:54:13.760Z,101718.61
2023-05-19T07:55:12.350Z,101723.05
2023-05-19T07:56:12.155Z,101724.45
2023-05-19T07:57:15.442Z,101720.61
2023-05-19T07:58:13.095Z,101723.66
2023-05-19T07:59:13.291Z,101726.28
2023-05-19T08:00:14.761Z,101726.44
2023-05-19T08:01:14.374Z,101724.73
2023-05-19T08:02:14.816Z,101721.19
2023-05-19T08:03:15.571Z,101716.55
2023-05-19T08:04:15.557Z,101722.36
2023-05-19T08:05:16.107Z,101716.73
2023-05-19T08:06:16.435Z,101716.48
2023-05-19T08:07:17.056Z,101715.23
2023-05-19T08:08:17.343Z,101714.72
2023-05-19T08:09:17.803Z,101714.77
2023-05-19T08:10:18.498Z,101717.55
2023-05-19T08:11:18.506Z,101719.73
2023-05-19T08:12:19.234Z,101718.16
2023-05-19T08:13:19.664Z,101714.07
2023-05-19T08:14:19.851Z,101718.69
2023-05-19T08:15:20.896Z,101709.07
2023-05-19T08:16:20.877Z,101709.2
2023-05-19T08:17:21.210Z,101707.45
2023-05-19T08:18:25.422Z,101704.12
2023-05-19T08:19:23.991Z,101707.5
2023-05-19T08:20:26.375Z,101705.55
2023-05-19T08:21:23.933Z,101705.66
2023-05-19T08:22:24.325Z,101710.98
2023-05-19T08:23:24.841Z,101706.39
2023-05-19T08:24:25.168Z,101708.78
2023-05-19T08:25:26.093Z,101706.06
2023-05-19T08:26:26.196Z,101706.19
2023-05-19T08:27:26.607Z,101702.77
2023-05-19T08:28:27.216Z,101699.6
2023-05-19T08:29:27.562Z,101696.79
2023-05-19T08:30:28.062Z,101694.7
2023-05-19T08:31:29.818Z,101698.48
2023-05-19T08:32:28.710Z,101702.58
2023-05-19T08:33:29.319Z,101697.09
2023-05-19T08:34:29.611Z,101696.83
2023-05-19T08:35:32.814Z,101696.79
2023-05-19T08:36:30.680Z,101695.69
2023-05-19T08:37:32.035Z,101700.2
2023-05-19T08:38:31.797Z,101698.98
2023-05-19T08:39:32.425Z,101697.22
2023-05-19T08:40:35.496Z,101693.62
2023-05-19T08:41:34.277Z,101694.59
2023-05-19T08:42:34.199Z,101697.58
2023-05-19T08:43:36.049Z,101696
2023-05-19T08:44:35.644Z,101695.4
2023-05-19T08:45:35.730Z,101692.71
2023-05-19T08:46:36.413Z,101693
2023-05-19T08:47:36.608Z,101689.87
2023-05-19T08:48:42.314Z,101689.03
2023-05-19T08:49:46.834Z,101692.31
2023-05-19T08:50:51.961Z,101695.14
2023-05-19T08:52:55.864Z,101703.16
2023-05-19T08:57:16.766Z,101696.22
2023-05-19T08:58:18.293Z,101696.67
2023-05-19T08:59:19.953Z,101699.19
2023-05-19T09:00:16.427Z,101697.82
2023-05-19T09:01:23.271Z,101699.14
2023-05-19T09:02:27.083Z,101701.16
2023-05-19T09:05:31.472Z,101701.32
2023-05-19T09:07:36.305Z,101690.43
2023-05-19T09:08:33.838Z,101694.15
2023-05-19T09:09:34.155Z,101695.56
2023-05-19T09:10:34.684Z,101697.28
2023-05-19T09:11:35.104Z,101697.02
2023-05-19T09:12:36.019Z,101689.06
2023-05-19T09:13:36.239Z,101693.98
2023-05-19T09:14:37.561Z,101696.42
2023-05-19T09:15:40.575Z,101697.55
2023-05-19T09:16:39.045Z,101691.46
2023-05-19T09:17:39.188Z,101695.34
2023-05-19T09:18:39.919Z,101691.66
2023-05-19T09:19:43.647Z,101686.91
2023-05-19T09:20:44.882Z,101692.39
2023-05-19T09:21:43.605Z,101690.33
2023-05-19T09:22:49.274Z,101695.09
2023-05-19T09:23:47.682Z,101687.12
2023-05-19T09:24:47.917Z,101690.27
2023-05-19T09:25:51.886Z,101688.42
2023-05-19T09:26:49.831Z,101681.44
2023-05-19T09:27:50.160Z,101686.44
2023-05-19T09:28:50.459Z,101685.53
2023-05-19T09:29:50.767Z,101680.2
2023-05-19T09:31:56.133Z,101679.88
2023-05-19T09:32:55.639Z,101688.91
2023-05-19T09:33:55.826Z,101680.63
2023-05-19T09:34:56.241Z,101687.88
2023-05-19T09:35:57.467Z,101682.78
2023-05-19T09:36:57.275Z,101682.16
2023-05-19T09:37:57.795Z,101689.55
2023-05-19T09:38:57.898Z,101679.97
2023-05-19T09:39:59.965Z,101682.7
2023-05-19T09:41:00.894Z,101684.52
2023-05-19T09:41:59.359Z,101682.41
2023-05-19T09:42:59.762Z,101679.5
2023-05-19T09:44:00.331Z,101681.91
2023-05-19T09:45:03.073Z,101677.85
2023-05-19T09:46:07.216Z,101678.05
2023-05-19T09:47:05.034Z,101674.34
2023-05-19T09:48:05.895Z,101671.32
2023-05-19T09:49:09.292Z,101672.62
2023-05-19T09:50:11.195Z,101669.88
2023-05-19T09:51:09.047Z,101673.78
2023-05-19T09:52:10.503Z,101677.02
2023-05-19T09:53:12.132Z,101673.55
2023-05-19T09:54:15.109Z,101671.41
2023-05-19T09:55:13.543Z,101668.75
2023-05-19T09:56:15.033Z,101669.17
2023-05-19T09:57:16.450Z,101665.69
2023-05-19T09:58:18.561Z,101667.05
2023-05-19T09:59:19.333Z,101673.45
2023-05-19T10:00:19.128Z,101673.21
2023-05-19T10:01:18.070Z,101673.55
2023-05-19T10:02:19.565Z,101670.84
2023-05-19T10:03:18.640Z,101669.09
2023-05-19T10:04:19.379Z,101672.47
2023-05-19T10:05:20.815Z,101665.08
2023-05-19T10:06:23.280Z,101670.21
2023-05-19T10:07:22.968Z,101664.73
2023-05-19T10:08:22.375Z,101663.67
2023-05-19T10:09:26.262Z,101668.67
2023-05-19T10:10:23.810Z,101671.45
2023-05-19T10:11:25.556Z,101663.66
2023-05-19T10:12:30.385Z,101667.85
2023-05-19T10:13:29.896Z,101670.19
2023-05-19T10:14:29.827Z,101668.77
2023-05-19T10:15:29.063Z,101667.11
2023-05-19T10:16:31.798Z,101666.94
2023-05-19T10:17:29.814Z,101664.34
2023-05-19T10:18:33.592Z,101664.95
2023-05-19T10:19:32.909Z,101662.05
2023-05-19T10:20:32.907Z,101660.28
2023-05-19T10:21:32.286Z,101666
2023-05-19T10:22:33.734Z,101666.61
2023-05-19T10:23:32.924Z,101662.52
2023-05-19T10:24:36.606Z,101666.29
2023-05-19T10:25:35.449Z,101662.64
2023-05-19T10:26:36.110Z,101659.89
2023-05-19T10:27:37.547Z,101664.2
2023-05-19T10:28:41.098Z,101660.98
2023-05-19T10:29:41.225Z,101659.14
2023-05-19T10:30:45.765Z,101664.79
2023-05-19T10:31:45.278Z,101662.88
2023-05-19T10:32:46.873Z,101662.45
2023-05-19T10:40:06.180Z,101657.55
2023-05-19T10:46:17.545Z,101657.85
2023-05-19T10:48:21.705Z,101657.58
2023-05-19T10:49:22.044Z,101657.77
2023-05-19T10:50:21.727Z,101653.53
2023-05-19T10:52:26.112Z,101659.31
2023-05-19T10:55:46.548Z,101653.42
2023-05-19T10:56:39.489Z,101645.67
2023-05-19T10:57:37.055Z,101644.25
2023-05-19T10:59:39.192Z,101643.23
2023-05-19T11:00:40.129Z,101643.93
2023-05-19T11:01:40.186Z,101644.55
2023-05-19T11:02:43.528Z,101642.98
2023-05-19T11:05:49.406Z,101649.08
2023-05-19T11:06:52.548Z,101648.14
2023-05-19T11:09:56.573Z,101645.7
2023-05-19T11:10:57.704Z,101645.83
2023-05-19T11:13:00.607Z,101640.04
2023-05-19T11:14:00.792Z,101644.41
2023-05-19T11:18:05.670Z,101648
2023-05-19T11:19:06.903Z,101654.26
2023-05-19T11:20:09.223Z,101652.84
2023-05-19T11:21:06.839Z,101652.94
2023-05-19T11:22:13.778Z,101645.59
2023-05-19T11:23:16.254Z,101645.28
2023-05-19T11:26:16.131Z,101646.11
2023-05-19T11:28:21.994Z,101642.65
2023-05-19T11:29:21.374Z,101651.83
2023-05-19T11:30:20.552Z,101644.87
2023-05-19T11:31:22.735Z,101644.09
2023-05-19T11:32:21.928Z,101650.97
2023-05-19T11:33:21.823Z,101651.48
2023-05-19T11:34:23.273Z,101647.09
2023-05-19T11:35:24.686Z,101643.39
2023-05-19T11:36:23.230Z,101647.8
2023-05-19T11:37:23.496Z,101649.28
2023-05-19T11:38:23.896Z,101650.56
2023-05-19T11:39:25.728Z,101646.46
2023-05-19T11:40:26.472Z,101644.05
2023-05-19T11:41:25.234Z,101648.48
2023-05-19T11:42:27.192Z,101646.69
2023-05-19T11:43:26.568Z,101647.73
2023-05-19T11:44:26.805Z,101653.22
2023-05-19T11:45:28.469Z,101647.2
2023-05-19T11:46:28.285Z,101645.14
2023-05-19T11:47:28.261Z,101647.69
2023-05-19T11:48:30.212Z,101641.48
2023-05-19T11:49:29.404Z,101638.83
2023-05-19T11:50:30.738Z,101641.08
2023-05-19T11:51:29.624Z,101644.17
2023-05-19T11:52:30.257Z,101645.15
2023-05-19T11:53:31.199Z,101642.59
2023-05-19T11:54:33.213Z,101647.66
2023-05-19T11:55:31.892Z,101639.76
2023-05-19T11:56:34.969Z,101641.17
2023-05-19T11:57:33.750Z,101647.48
2023-05-19T11:58:32.928Z,101648.7
2023-05-19T11:59:35.989Z,101647.23
2023-05-19T12:00:40.378Z,101647.93
2023-05-19T12:01:38.269Z,101649.16
2023-05-19T12:02:38.765Z,101650.66
2023-05-19T12:03:39.206Z,101651.05
2023-05-19T12:04:39.515Z,101642.66
2023-05-19T12:05:49.393Z,101643.94
2023-05-19T12:06:42.661Z,101648.71
2023-05-19T12:07:42.710Z,101644.45
2023-05-19T12:08:43.742Z,101635
2023-05-19T12:09:47.455Z,101642.93
2023-05-19T12:10:48.479Z,101646.78
2023-05-19T12:11:46.126Z,101648.08
2023-05-19T12:12:46.656Z,101644.31
2023-05-19T12:13:48.000Z,101641.7
2023-05-19T12:14:53.921Z,101637.38
2023-05-19T12:16:01.761Z,101638.59
2023-05-19T12:16:58.960Z,101638.17
2023-05-19T12:20:16.516Z,101640.06
2023-05-19T12:21:06.799Z,101637.58
2023-05-19T12:22:07.690Z,101632.71
2023-05-19T12:23:08.159Z,101632.97
2023-05-19T12:24:07.698Z,101630.41
2023-05-19T12:25:08.864Z,101631.36
2023-05-19T12:26:08.807Z,101629.23
2023-05-19T12:28:10.316Z,101632.84
2023-05-19T12:29:13.063Z,101623.33
2023-05-19T12:30:12.773Z,101628.19
2023-05-19T12:31:12.809Z,101632.22
2023-05-19T12:32:11.690Z,101633.08
2023-05-19T12:33:15.497Z,101637.39
2023-05-19T12:34:13.676Z,101634.58
2023-05-19T12:35:14.849Z,101631.12
2023-05-19T12:36:13.845Z,101636.83
2023-05-19T12:37:14.273Z,101635.66
2023-05-19T12:38:14.985Z,101631.78
2023-05-19T12:39:15.188Z,101637.92
2023-05-19T12:41:17.868Z,101634.89
2023-05-19T12:42:18.191Z,101629.4
2023-05-19T12:44:22.506Z,101628.89
2023-05-19T12:45:23.416Z,101623.95
2023-05-19T12:46:23.491Z,101633.3
2023-05-19T12:48:28.582Z,101634.11
2023-05-19T12:49:27.442Z,101634.41
2023-05-19T12:50:31.138Z,101633.62